createdAt,value
2022-08-05T00:00:00.318Z,7.95
2022-08-05T00:02:28.727Z,5.47
2022-08-05T00:04:57.628Z,7.45
2022-08-05T00:07:58.873Z,6.28
2022-08-05T00:10:14.356Z,8.48
2022-08-05T00:12:56.841Z,9.60
2022-08-05T00:15:55.906Z,5.55
2022-08-05T00:18:21.734Z,6.47
2022-08-05T00:20:51.470Z,7.18
2022-08-05T00:23:44.443Z,5.90
2022-08-05T00:26:08.116Z,6.57
2022-08-05T00:28:35.168Z,7.25
2022-08-05T00:31:04.730Z,4.50
2022-08-05T00:34:53.186Z,3.90
2022-08-05T00:37:11.754Z,4.22
2022-08-05T00:39:13.944Z,5.75
2022-08-05T00:41:51.778Z,6.88
2022-08-05T00:44:30.981Z,4.57
2022-08-05T00:47:01.619Z,5.05
2022-08-05T00:49:32.684Z,6.10
2022-08-05T00:52:12.680Z,5.18
2022-08-05T00:54:41.408Z,6.18
2022-08-05T00:57:12.132Z,7.22
2022-08-05T00:59:44.421Z,4.45
2022-08-05T01:02:13.662Z,5.53
2022-08-05T01:04:44.367Z,3.70
2022-08-05T01:07:18.558Z,5.78
2022-08-05T01:09:46.414Z,3.47
2022-08-05T01:12:25.392Z,4.95
2022-08-05T01:15:03.804Z,3.28
2022-08-05T01:17:43.935Z,3.17
2022-08-05T01:20:47.970Z,4.43
2022-08-05T01:23:54.099Z,6.55
2022-08-05T01:26:42.042Z,5.55
2022-08-05T01:29:25.031Z,7.10
2022-08-05T01:31:58.930Z,8.45
2022-08-05T01:34:38.250Z,10.73
2022-08-05T01:37:25.889Z,10.55
2022-08-05T01:39:58.994Z,11.35
2022-08-05T01:42:30.123Z,7.90
2022-08-05T01:45:02.389Z,6.03
2022-08-05T01:47:39.476Z,8.93
2022-08-05T01:50:17.535Z,10.85
2022-08-05T01:52:49.853Z,10.80
2022-08-05T01:55:22.398Z,10.82
2022-08-05T01:58:13.574Z,7.80
2022-08-05T02:00:45.981Z,8.80
2022-08-05T02:03:36.536Z,11.38
2022-08-05T02:06:37.314Z,8.40
2022-08-05T02:08:59.370Z,10.25
2022-08-05T02:11:42.257Z,7.85
2022-08-05T02:14:20.935Z,7.13
2022-08-05T02:16:54.233Z,9.05
2022-08-05T02:19:47.626Z,6.65
2022-08-05T02:22:59.978Z,7.88
2022-08-05T02:28:28.431Z,6.18
2022-08-05T02:31:14.569Z,6.95
2022-08-05T02:33:59.011Z,8.50
2022-08-05T02:36:31.392Z,5.80
2022-08-05T02:39:03.932Z,4.93
2022-08-05T02:41:58.262Z,6.88
2022-08-05T02:44:27.006Z,7.13
2022-08-05T02:47:00.287Z,7.65
2022-08-05T02:49:44.545Z,6.07
2022-08-05T02:52:29.530Z,7.25
2022-08-05T02:55:01.794Z,7.10
2022-08-05T02:58:19.693Z,5.43
2022-08-05T03:00:21.689Z,8.68
2022-08-05T03:02:49.655Z,4.60
2022-08-05T03:05:21.665Z,8.70
2022-08-05T03:08:09.601Z,9.45
2022-08-05T03:10:37.655Z,18.25
2022-08-05T03:13:16.876Z,8.18
2022-08-05T03:15:46.412Z,10.10
2022-08-05T03:18:17.280Z,7.72
2022-08-05T03:20:48.980Z,4.90
2022-08-05T03:23:18.378Z,10.00
2022-08-05T03:26:03.674Z,7.18
2022-08-05T03:28:39.349Z,9.70
2022-08-05T03:31:08.252Z,8.60
2022-08-05T03:33:51.323Z,8.15
2022-08-05T03:36:30.183Z,14.32
2022-08-05T03:38:58.834Z,7.18
2022-08-05T03:41:26.552Z,6.15
2022-08-05T03:44:10.356Z,8.93
2022-08-05T03:46:38.627Z,7.80
2022-08-05T03:49:06.723Z,5.65
2022-08-05T03:52:39.332Z,8.65
2022-08-05T03:56:01.591Z,6.45
2022-08-05T03:57:46.251Z,9.93
2022-08-05T04:00:26.435Z,6.47
2022-08-05T04:02:58.524Z,6.78
2022-08-05T04:05:33.928Z,6.53
2022-08-05T04:08:05.517Z,5.72
2022-08-05T04:10:45.209Z,4.97
2022-08-05T04:13:12.019Z,8.53
2022-08-05T04:15:39.945Z,7.18
2022-08-05T04:18:27.912Z,8.68
2022-08-05T04:20:57.385Z,7.38
2022-08-05T04:24:05.452Z,8.07
2022-08-05T04:26:15.615Z,8.50
2022-08-05T04:28:51.086Z,5.40
2022-08-05T04:31:20.021Z,7.35
2022-08-05T04:34:17.343Z,7.82
2022-08-05T04:36:49.512Z,8.10
2022-08-05T04:39:18.398Z,10.68
2022-08-05T04:41:48.533Z,11.80
2022-08-05T04:44:29.846Z,11.63
2022-08-05T04:46:58.932Z,11.18
2022-08-05T04:49:38.446Z,9.88
2022-08-05T04:52:16.289Z,10.82
2022-08-05T04:54:47.199Z,6.80
2022-08-05T04:57:19.916Z,7.68
2022-08-05T04:59:48.717Z,9.63
2022-08-05T05:02:41.956Z,9.52
2022-08-05T05:05:16.605Z,9.27
2022-08-05T05:07:56.135Z,7.32
2022-08-05T05:13:01.921Z,10.10
2022-08-05T05:15:56.120Z,5.82
2022-08-05T05:18:31.013Z,6.50
2022-08-05T05:21:00.824Z,7.55
2022-08-05T05:23:39.097Z,9.15
2022-08-05T05:26:16.208Z,7.57
2022-08-05T05:28:45.085Z,5.30
2022-08-05T05:31:13.830Z,5.30
2022-08-05T05:33:58.570Z,5.85
2022-08-05T05:36:28.841Z,5.38
2022-08-05T05:38:57.380Z,9.20
2022-08-05T05:41:24.228Z,8.52
2022-08-05T05:43:57.449Z,4.88
2022-08-05T05:46:26.789Z,6.85
2022-08-05T05:48:53.424Z,8.18
2022-08-05T05:51:25.639Z,6.65
2022-08-05T05:53:59.021Z,7.50
2022-08-05T05:56:33.234Z,6.32
2022-08-05T05:59:03.567Z,8.40
2022-08-05T06:01:37.654Z,10.48
2022-08-05T06:04:11.761Z,9.77
2022-08-05T06:06:47.400Z,8.98
2022-08-05T06:09:16.806Z,6.75
2022-08-05T06:11:59.208Z,5.65
2022-08-05T06:14:29.240Z,6.80
2022-08-05T06:16:56.884Z,6.03
2022-08-05T06:19:34.072Z,7.22
2022-08-05T06:22:06.482Z,8.40
2022-08-05T06:24:34.866Z,11.18
2022-08-05T06:27:03.982Z,11.65
2022-08-05T06:29:49.556Z,19.58
2022-08-05T06:32:25.585Z,18.63
2022-08-05T06:34:56.524Z,15.77
2022-08-05T06:37:55.867Z,20.53
2022-08-05T06:42:52.107Z,17.23
2022-08-05T06:48:47.060Z,12.52
2022-08-05T06:50:34.767Z,24.00
2022-08-05T06:53:03.708Z,21.52
2022-08-05T06:55:38.028Z,14.50
2022-08-05T06:58:19.885Z,23.23
2022-08-05T07:00:47.157Z,13.23
2022-08-05T07:03:14.066Z,14.05
2022-08-05T07:05:43.402Z,19.13
2022-08-05T07:08:11.124Z,17.27
2022-08-05T07:10:38.866Z,14.07
2022-08-05T07:18:07.104Z,7.07
2022-08-05T07:20:22.949Z,15.13
2022-08-05T07:22:15.947Z,9.70
2022-08-05T07:24:43.909Z,9.13
2022-08-05T07:27:19.202Z,10.18
2022-08-05T07:30:27.726Z,8.35
2022-08-05T07:32:38.660Z,12.18
2022-08-05T07:36:02.373Z,17.87
2022-08-05T07:37:55.992Z,13.10
2022-08-05T07:40:31.616Z,9.13
2022-08-05T07:42:59.463Z,6.35
2022-08-05T07:45:58.200Z,6.18
2022-08-05T07:49:00.667Z,13.93
2022-08-05T07:51:22.920Z,7.47
2022-08-05T07:53:51.642Z,8.73
2022-08-05T07:56:59.931Z,10.57
2022-08-05T07:59:05.321Z,5.25
2022-08-05T08:01:35.438Z,4.30
2022-08-05T08:04:08.368Z,5.70
2022-08-05T08:06:35.106Z,10.88
2022-08-05T08:09:01.730Z,6.90
2022-08-05T08:11:47.580Z,9.65
2022-08-05T08:14:19.029Z,6.32
2022-08-05T08:16:50.839Z,5.47
2022-08-05T08:20:22.477Z,7.75
2022-08-05T08:22:09.011Z,3.00
2022-08-05T08:24:51.284Z,3.10
2022-08-05T08:27:18.714Z,3.08
2022-08-05T08:30:05.559Z,2.75
2022-08-05T08:32:34.974Z,5.28
2022-08-05T08:35:13.531Z,5.53
2022-08-05T08:37:40.616Z,4.13
2022-08-05T08:40:12.530Z,5.55
2022-08-05T08:42:46.941Z,3.97
2022-08-05T08:45:26.733Z,3.65
2022-08-05T08:48:10.743Z,5.07
2022-08-05T08:51:22.612Z,3.90
2022-08-05T08:53:40.263Z,3.30
2022-08-05T08:56:11.798Z,2.63
2022-08-05T08:58:44.563Z,6.13
2022-08-05T09:01:17.050Z,6.63
2022-08-05T09:03:52.887Z,6.88
2022-08-05T09:06:24.154Z,5.75
2022-08-05T09:08:55.597Z,6.93
2022-08-05T09:11:51.371Z,6.93
2022-08-05T09:14:57.502Z,3.38
2022-08-05T09:16:55.950Z,2.95
2022-08-05T09:19:27.901Z,11.30
2022-08-05T09:22:23.456Z,4.35
2022-08-05T09:25:00.767Z,2.90
2022-08-05T09:28:04.212Z,3.22
2022-08-05T09:30:23.354Z,2.50
2022-08-05T09:32:51.582Z,3.15
2022-08-05T09:35:27.110Z,3.03
2022-08-05T09:38:12.730Z,7.57
2022-08-05T09:40:52.651Z,2.38
2022-08-05T09:43:40.774Z,3.80
2022-08-05T09:46:27.414Z,7.18
2022-08-05T09:49:06.822Z,3.80
2022-08-05T09:51:37.548Z,2.92
2022-08-05T09:54:09.478Z,2.63
2022-08-05T09:56:38.799Z,8.88
2022-08-05T09:59:08.310Z,4.20
2022-08-05T10:01:40.382Z,4.82
2022-08-05T10:04:16.067Z,3.60
2022-08-05T10:06:59.602Z,7.78
2022-08-05T10:09:29.488Z,3.95
2022-08-05T10:12:30.775Z,2.80
2022-08-05T10:15:16.247Z,5.05
2022-08-05T10:17:54.635Z,3.20
2022-08-05T10:20:25.568Z,2.92
2022-08-05T10:22:52.666Z,3.35
2022-08-05T10:25:19.606Z,3.45
2022-08-05T10:28:13.723Z,8.02
2022-08-05T10:32:46.714Z,2.28
2022-08-05T10:33:28.981Z,3.72
2022-08-05T10:35:59.631Z,3.20
2022-08-05T10:38:28.783Z,4.70
2022-08-05T10:41:13.900Z,3.42
2022-08-05T10:43:50.916Z,3.78
2022-08-05T10:46:23.770Z,3.35
2022-08-05T10:49:09.856Z,5.07
2022-08-05T10:51:59.678Z,2.42
2022-08-05T10:54:56.232Z,2.20
2022-08-05T10:57:31.755Z,5.57
2022-08-05T11:00:23.538Z,8.27
2022-08-05T11:03:25.258Z,6.10
2022-08-05T11:06:15.714Z,1.80
2022-08-05T11:11:44.349Z,4.15
2022-08-05T11:15:11.519Z,3.50
2022-08-05T11:18:00.216Z,9.32
2022-08-05T11:20:46.212Z,4.00
2022-08-05T11:24:04.240Z,2.20
2022-08-05T11:26:38.062Z,6.88
2022-08-05T11:29:13.537Z,3.17
2022-08-05T11:31:56.648Z,3.30
2022-08-05T11:34:51.688Z,2.55
2022-08-05T11:38:30.194Z,3.85
2022-08-05T11:41:03.437Z,4.53
2022-08-05T11:44:07.773Z,2.40
2022-08-05T11:46:58.344Z,5.10
2022-08-05T11:49:37.277Z,4.45
2022-08-05T11:52:11.628Z,3.95
2022-08-05T11:54:40.550Z,3.60
2022-08-05T11:57:39.396Z,4.07
2022-08-05T11:59:55.129Z,3.00
2022-08-05T12:02:33.092Z,6.05
2022-08-05T12:05:07.374Z,6.13
2022-08-05T12:08:03.304Z,4.32
2022-08-05T12:10:38.652Z,3.85
2022-08-05T12:13:15.668Z,2.53
2022-08-05T12:15:50.247Z,3.28
2022-08-05T12:18:32.764Z,4.07
2022-08-05T12:21:33.931Z,4.32
2022-08-05T12:24:08.719Z,5.15
2022-08-05T12:26:37.554Z,6.72
2022-08-05T12:29:25.182Z,4.65
2022-08-05T12:31:58.581Z,3.85
2022-08-05T12:34:32.497Z,4.95
2022-08-05T12:37:10.824Z,3.05
2022-08-05T12:39:45.042Z,4.88
2022-08-05T12:42:19.960Z,2.42
2022-08-05T12:44:47.742Z,4.38
2022-08-05T12:47:36.803Z,7.90
2022-08-05T12:50:16.905Z,13.70
2022-08-05T12:52:59.768Z,8.63
2022-08-05T12:55:32.756Z,5.68
2022-08-05T12:58:50.508Z,4.22
2022-08-05T13:02:01.007Z,6.05
2022-08-05T13:03:42.431Z,5.53
2022-08-05T13:06:17.240Z,4.05
2022-08-05T13:08:49.119Z,2.47
2022-08-05T13:11:57.884Z,4.07
2022-08-05T13:14:20.434Z,5.07
2022-08-05T13:16:58.850Z,6.32
2022-08-05T13:19:51.631Z,7.90
2022-08-05T13:22:28.504Z,5.65
2022-08-05T13:25:05.532Z,3.42
2022-08-05T13:27:39.662Z,3.00
2022-08-05T13:30:35.313Z,4.45
2022-08-05T13:33:01.318Z,5.90
2022-08-05T13:35:42.676Z,6.88
2022-08-05T13:38:20.252Z,4.25
2022-08-05T13:40:57.084Z,6.72
2022-08-05T13:43:23.745Z,3.72
2022-08-05T13:46:12.246Z,2.42
2022-08-05T13:48:58.358Z,4.53
2022-08-05T13:51:40.439Z,2.50
2022-08-05T13:54:13.476Z,3.03
2022-08-05T13:56:50.429Z,4.50
2022-08-05T13:59:24.196Z,3.67
2022-08-05T14:01:58.980Z,3.85
2022-08-05T14:04:51.623Z,3.20
2022-08-05T14:07:55.487Z,2.10
2022-08-05T14:10:28.833Z,2.15
2022-08-05T14:12:57.848Z,6.15
2022-08-05T14:16:08.352Z,2.47
2022-08-05T14:18:17.789Z,4.38
2022-08-05T14:20:49.024Z,4.80
2022-08-05T14:23:25.423Z,5.03
2022-08-05T14:25:54.532Z,7.93
2022-08-05T14:28:27.059Z,4.88
2022-08-05T14:30:58.183Z,3.92
2022-08-05T14:33:24.966Z,6.35
2022-08-05T14:35:54.342Z,2.22
2022-08-05T14:38:32.192Z,5.97
2022-08-05T14:41:05.840Z,8.60
2022-08-05T14:43:59.629Z,8.57
2022-08-05T14:46:21.890Z,4.53
2022-08-05T14:48:49.187Z,2.75
2022-08-05T14:51:17.561Z,6.32
2022-08-05T14:53:46.365Z,6.13
2022-08-05T14:56:33.129Z,9.65
2022-08-05T14:59:00.005Z,3.63
2022-08-05T15:01:48.751Z,3.78
2022-08-05T15:04:14.322Z,6.13
2022-08-05T15:06:41.029Z,4.80
2022-08-05T15:09:15.928Z,3.38
2022-08-05T15:11:51.651Z,5.22
2022-08-05T15:14:35.795Z,3.15
2022-08-05T15:17:14.642Z,3.33
2022-08-05T15:19:55.118Z,2.03
2022-08-05T15:22:22.025Z,2.65
2022-08-05T15:24:54.423Z,3.92
2022-08-05T15:27:21.040Z,5.00
2022-08-05T15:29:47.655Z,2.22
2022-08-05T15:32:16.789Z,2.25
2022-08-05T15:34:43.491Z,2.67
2022-08-05T15:37:14.127Z,6.00
2022-08-05T15:41:01.027Z,4.45
2022-08-05T15:42:55.733Z,4.95
2022-08-05T15:45:16.848Z,5.63
2022-08-05T15:47:46.378Z,5.78
2022-08-05T15:50:15.888Z,2.35
2022-08-05T15:52:52.948Z,2.53
2022-08-05T15:55:24.730Z,7.57
2022-08-05T15:58:16.528Z,2.30
2022-08-05T16:00:50.946Z,4.03
2022-08-05T16:03:32.660Z,4.63
2022-08-05T16:06:00.771Z,3.47
2022-08-05T16:08:30.410Z,3.03
2022-08-05T16:10:57.387Z,4.68
2022-08-05T16:13:24.165Z,3.88
2022-08-05T16:16:01.224Z,3.63
2022-08-05T16:18:31.303Z,2.78
2022-08-05T16:21:03.919Z,3.63
2022-08-05T16:23:32.964Z,2.83
2022-08-05T16:26:18.234Z,5.18
2022-08-05T16:28:44.930Z,2.00
2022-08-05T16:31:11.575Z,6.40
2022-08-05T16:33:41.655Z,4.93
2022-08-05T16:36:09.152Z,4.95
2022-08-05T16:38:35.897Z,4.63
2022-08-05T16:41:21.644Z,5.35
2022-08-05T16:43:49.773Z,3.85
2022-08-05T16:46:24.433Z,3.80
2022-08-05T16:48:51.746Z,2.80
2022-08-05T16:51:19.282Z,4.47
2022-08-05T16:54:04.898Z,4.95
2022-08-05T16:56:35.399Z,2.40
2022-08-05T16:59:08.361Z,2.45
2022-08-05T17:01:54.204Z,6.90
2022-08-05T17:04:26.129Z,2.53
2022-08-05T17:06:55.483Z,3.35
2022-08-05T17:09:22.970Z,2.35
2022-08-05T17:11:56.056Z,5.18
2022-08-05T17:14:37.602Z,1.92
2022-08-05T17:17:06.774Z,3.58
2022-08-05T17:19:43.873Z,8.85
2022-08-05T17:22:17.864Z,3.20
2022-08-05T17:24:51.289Z,6.13
2022-08-05T17:27:26.155Z,3.25
2022-08-05T17:30:00.654Z,4.80
2022-08-05T17:32:29.214Z,3.83
2022-08-05T17:34:58.147Z,2.40
2022-08-05T17:37:41.437Z,4.57
2022-08-05T17:40:14.984Z,4.05
2022-08-05T17:42:51.281Z,6.40
2022-08-05T17:45:22.276Z,4.15
2022-08-05T17:47:55.360Z,3.72
2022-08-05T17:50:28.749Z,6.95
2022-08-05T17:53:04.982Z,6.72
2022-08-05T17:55:38.350Z,5.47
2022-08-05T17:58:13.240Z,4.15
2022-08-05T18:00:44.971Z,3.03
2022-08-05T18:03:39.178Z,7.93
2022-08-05T18:06:06.079Z,6.28
2022-08-05T18:08:38.277Z,8.75
2022-08-05T18:11:11.315Z,7.18
2022-08-05T18:13:51.590Z,10.77
2022-08-05T18:16:20.404Z,7.55
2022-08-05T18:18:48.636Z,6.22
2022-08-05T18:21:21.105Z,6.20
2022-08-05T18:23:53.712Z,7.07
2022-08-05T18:26:29.332Z,12.70
2022-08-05T18:28:59.152Z,20.05
2022-08-05T18:31:33.768Z,11.18
2022-08-05T18:34:03.385Z,17.52
2022-08-05T18:36:35.493Z,26.97
2022-08-05T18:39:04.367Z,23.00
2022-08-05T18:41:56.779Z,14.65
2022-08-05T18:44:25.834Z,17.85
2022-08-05T18:47:04.071Z,19.50
2022-08-05T18:49:58.280Z,15.57
2022-08-05T18:52:35.900Z,16.45
2022-08-05T18:55:06.093Z,16.65
2022-08-05T18:57:43.200Z,10.15
2022-08-05T19:00:20.392Z,8.80
2022-08-05T19:02:48.909Z,17.27
2022-08-05T19:06:11.758Z,23.75
2022-08-05T19:08:07.709Z,15.30
2022-08-05T19:10:40.581Z,14.63
2022-08-05T19:13:12.404Z,19.05
2022-08-05T19:15:57.602Z,19.35
2022-08-05T19:18:27.484Z,16.83
2022-08-05T19:20:55.866Z,16.70
2022-08-05T19:24:06.253Z,21.77
2022-08-05T19:26:11.208Z,23.48
2022-08-05T19:28:43.412Z,26.42
2022-08-05T19:31:13.545Z,19.83
2022-08-05T19:33:48.550Z,21.02
2022-08-05T19:36:29.609Z,14.57
2022-08-05T19:39:00.651Z,13.95
2022-08-05T19:42:05.427Z,18.23
2022-08-05T19:44:19.039Z,13.88
2022-08-05T19:46:47.341Z,15.82
2022-08-05T19:49:17.906Z,11.57
2022-08-05T19:52:09.286Z,13.25
2022-08-05T19:54:36.892Z,12.70
2022-08-05T19:57:09.084Z,10.30
2022-08-05T20:00:00.265Z,12.00
2022-08-05T20:02:27.700Z,8.43
2022-08-05T20:04:58.500Z,11.20
2022-08-05T20:07:45.657Z,15.30
2022-08-05T20:10:16.078Z,13.05
2022-08-05T20:12:45.990Z,14.35
2022-08-05T20:15:22.916Z,15.32
2022-08-05T20:18:10.837Z,19.48
2022-08-05T20:20:57.340Z,21.02
2022-08-05T20:23:39.293Z,17.35
2022-08-05T20:26:16.057Z,15.88
2022-08-05T20:28:46.295Z,15.55
2022-08-05T20:31:16.600Z,18.60
2022-08-05T20:33:45.324Z,13.30
2022-08-05T20:36:16.372Z,17.13
2022-08-05T20:38:54.498Z,23.95
2022-08-05T20:41:44.278Z,19.20
2022-08-05T20:44:29.739Z,19.65
2022-08-05T20:47:03.267Z,26.50
2022-08-05T20:49:37.804Z,29.25
2022-08-05T20:52:08.690Z,17.83
2022-08-05T20:54:55.218Z,16.90
2022-08-05T20:57:43.301Z,24.55
2022-08-05T21:00:41.139Z,19.58
2022-08-05T21:03:07.146Z,18.95
2022-08-05T21:05:54.108Z,21.13
2022-08-05T21:08:31.716Z,19.83
2022-08-05T21:11:09.340Z,19.40
2022-08-05T21:13:47.443Z,25.88
2022-08-05T21:16:29.765Z,17.92
2022-08-05T21:19:00.864Z,14.13
2022-08-05T21:21:39.019Z,20.57
2022-08-05T21:24:15.620Z,24.63
2022-08-05T21:26:53.163Z,18.33
2022-08-05T21:29:26.437Z,18.55
2022-08-05T21:31:53.632Z,16.65
2022-08-05T21:34:22.106Z,15.30
2022-08-05T21:36:50.031Z,17.40
2022-08-05T21:39:26.866Z,17.75
2022-08-05T21:42:01.093Z,14.20
2022-08-05T21:44:31.682Z,15.88
2022-08-05T21:46:58.900Z,16.83
2022-08-05T21:49:56.816Z,14.15
2022-08-05T21:52:21.573Z,15.30
2022-08-05T21:54:51.940Z,18.55
2022-08-05T21:57:32.612Z,10.80
2022-08-05T22:00:06.207Z,16.77
2022-08-05T22:02:37.724Z,14.52
2022-08-05T22:05:08.899Z,19.17
2022-08-05T22:10:31.217Z,13.82
2022-08-05T22:13:08.723Z,15.55
2022-08-05T22:16:00.285Z,12.20
2022-08-05T22:18:34.974Z,23.50
2022-08-05T22:21:18.883Z,16.53
2022-08-05T22:24:12.895Z,12.32
2022-08-05T22:27:06.919Z,16.63
2022-08-05T22:29:39.913Z,14.70
2022-08-05T22:32:11.442Z,17.20
2022-08-05T22:34:47.030Z,9.68
2022-08-05T22:37:16.923Z,12.63
2022-08-05T22:39:50.393Z,10.75
2022-08-05T22:42:25.493Z,14.50
2022-08-05T22:44:56.661Z,15.93
2022-08-05T22:47:30.681Z,11.32
2022-08-05T22:50:19.392Z,13.80
2022-08-05T22:52:52.544Z,13.80
2022-08-05T22:55:23.867Z,12.23
2022-08-05T22:57:53.597Z,11.95
2022-08-05T23:02:58.570Z,15.40
2022-08-05T23:07:55.159Z,11.00
2022-08-05T23:10:25.637Z,11.93
2022-08-05T23:12:55.605Z,10.35
2022-08-05T23:15:35.379Z,12.43
2022-08-05T23:18:06.164Z,13.97
2022-08-05T23:20:40.308Z,16.60
2022-08-05T23:23:10.676Z,10.32
2022-08-05T23:25:54.968Z,14.07
2022-08-05T23:28:28.986Z,12.00
2022-08-05T23:30:57.140Z,13.07
2022-08-05T23:34:04.981Z,11.35
2022-08-05T23:36:39.720Z,13.00
2022-08-05T23:39:17.660Z,10.77
2022-08-05T23:42:00.934Z,13.77
2022-08-05T23:44:31.057Z,14.13
2022-08-05T23:47:02.424Z,17.08
2022-08-05T23:49:35.911Z,14.95
2022-08-05T23:52:25.108Z,13.77
2022-08-05T23:55:10.960Z,15.73
2022-08-05T23:57:40.885Z,13.13
